createdAt,value
2023-01-13T00:00:04.925Z,-2.50
2023-01-13T00:02:39.870Z,-2.51
2023-01-13T00:05:12.875Z,-2.49
2023-01-13T05:03:17.585Z,-2.30
2023-01-13T05:05:53.269Z,-2.34
2023-01-13T05:08:26.579Z,-2.28
2023-01-13T05:11:05.319Z,-2.24
2023-01-13T05:14:04.862Z,-2.12
2023-01-13T05:16:54.862Z,-2.17
2023-01-13T05:19:29.213Z,-2.20
2023-01-13T05:22:19.617Z,-2.20
2023-01-13T05:25:10.534Z,-2.19
2023-01-13T05:27:42.867Z,-2.18
2023-01-13T05:30:15.722Z,-2.16
2023-01-13T05:32:48.686Z,-2.15
2023-01-13T05:35:21.200Z,-2.15
2023-01-13T05:37:53.542Z,-2.16
2023-01-13T05:40:44.464Z,-2.14
2023-01-13T05:43:22.044Z,-2.13
2023-01-13T05:46:00.732Z,-2.11
2023-01-13T05:48:39.704Z,-2.05
2023-01-13T05:51:13.318Z,-2.00
2023-01-13T05:53:45.703Z,-1.99
2023-01-13T05:56:18.263Z,-1.98
2023-01-13T05:58:50.900Z,-1.96
2023-01-13T06:01:23.560Z,-1.97
2023-01-13T06:03:56.089Z,-1.97
2023-01-13T06:06:28.543Z,-1.93
2023-01-13T06:09:01.614Z,-1.92
2023-01-13T06:11:34.306Z,-1.91
2023-01-13T06:14:07.097Z,-1.91
2023-01-13T06:16:39.726Z,-1.86
2023-01-13T06:19:13.455Z,-1.86
2023-01-13T06:21:45.980Z,-1.81
2023-01-13T06:24:18.313Z,-1.78
2023-01-13T06:26:50.885Z,-1.77
2023-01-13T06:29:23.725Z,-1.72
2023-01-13T06:31:56.441Z,-1.70
2023-01-13T06:34:29.925Z,-1.63
2023-01-13T06:37:02.531Z,-1.62
2023-01-13T06:39:36.222Z,-1.62
2023-01-13T06:42:26.699Z,-1.62
2023-01-13T06:44:59.037Z,-1.66
2023-01-13T06:47:31.467Z,-1.74
2023-01-13T06:50:04.677Z,-1.74
2023-01-13T06:52:37.470Z,-1.73
2023-01-13T06:55:10.372Z,-1.73
2023-01-13T06:57:54.625Z,-1.70
2023-01-13T07:00:28.327Z,-1.70
2023-01-13T07:03:17.438Z,-1.68
2023-01-13T07:05:55.026Z,-1.60
2023-01-13T07:08:27.386Z,-1.57
2023-01-13T07:11:04.743Z,-1.55
2023-01-13T07:13:55.410Z,-1.60
2023-01-13T07:16:28.343Z,-1.60
2023-01-13T07:19:00.858Z,-1.56
2023-01-13T07:21:33.986Z,-1.53
2023-01-13T07:24:06.871Z,-1.55
2023-01-13T07:26:39.592Z,-1.54
2023-01-13T07:29:12.573Z,-1.49
2023-01-13T07:31:45.172Z,-1.44
2023-01-13T07:34:17.707Z,-1.36
2023-01-13T07:36:50.378Z,-1.35
2023-01-13T07:39:23.000Z,-1.35
2023-01-13T07:41:59.773Z,-1.30
2023-01-13T07:44:32.341Z,-1.25
2023-01-13T07:47:06.097Z,-1.18
2023-01-13T07:49:39.202Z,-1.14
2023-01-13T07:52:11.724Z,-1.11
2023-01-13T07:54:44.069Z,-1.10
2023-01-13T07:57:17.034Z,-1.08
2023-01-13T07:59:49.500Z,-1.07
2023-01-13T08:02:22.064Z,-1.05
2023-01-13T08:04:55.364Z,-1.04
2023-01-13T08:07:28.155Z,-0.98
2023-01-13T08:10:02.425Z,-0.96
2023-01-13T08:12:55.692Z,-0.99
2023-01-13T08:15:27.404Z,-1.00
2023-01-13T08:18:00.642Z,-0.94
2023-01-13T08:20:33.069Z,-0.92
2023-01-13T08:23:07.235Z,-0.91
2023-01-13T08:25:39.076Z,-0.91
2023-01-13T08:28:11.312Z,-0.97
2023-01-13T08:30:44.186Z,-0.99
2023-01-13T08:33:16.841Z,-0.98
2023-01-13T08:35:50.880Z,-1.01
2023-01-13T08:38:24.680Z,-1.03
2023-01-13T08:40:57.826Z,-1.05
2023-01-13T08:43:30.162Z,-1.02
2023-01-13T08:46:05.327Z,-1.03
2023-01-13T08:48:38.108Z,-0.99
2023-01-13T08:51:10.906Z,-0.97
2023-01-13T08:53:44.233Z,-0.99
2023-01-13T08:56:17.213Z,-0.94
2023-01-13T08:58:49.738Z,-0.89
2023-01-13T09:01:24.136Z,-0.89
2023-01-13T09:03:56.794Z,-0.93
2023-01-13T09:06:29.445Z,-0.94
2023-01-13T09:09:02.869Z,-0.95
2023-01-13T09:11:55.939Z,-0.96
2023-01-13T09:14:50.017Z,-0.95
2023-01-13T09:17:23.364Z,-0.96
2023-01-13T09:19:55.847Z,-0.98
2023-01-13T09:22:28.928Z,-0.95
2023-01-13T09:25:01.483Z,-0.95
2023-01-13T09:27:35.011Z,-0.96
2023-01-13T09:30:09.122Z,-0.92
2023-01-13T09:32:41.526Z,-0.85
2023-01-13T09:35:14.152Z,-0.81
2023-01-13T09:37:46.784Z,-0.79
2023-01-13T09:40:22.896Z,-0.77
2023-01-13T09:43:24.117Z,-0.85
2023-01-13T09:46:01.055Z,-0.96
2023-01-13T09:48:40.408Z,-1.05
2023-01-13T09:51:35.815Z,-1.05
2023-01-13T09:54:32.268Z,-1.01
2023-01-13T09:57:14.540Z,-0.96
2023-01-13T09:59:47.135Z,-1.00
2023-01-13T10:03:08.648Z,-1.01
2023-01-13T10:06:04.847Z,-1.00
2023-01-13T13:33:51.878Z,-0.36
2023-01-13T13:36:47.027Z,-0.35
2023-01-13T13:39:45.704Z,-0.32
2023-01-13T13:42:38.413Z,-0.29
2023-01-13T13:45:40.069Z,-0.32
2023-01-13T13:48:31.816Z,-0.36
2023-01-13T13:51:07.208Z,-0.38
2023-01-13T13:53:42.155Z,-0.41
2023-01-13T13:56:21.719Z,-0.43
2023-01-13T13:58:54.153Z,-0.46
2023-01-13T14:01:31.354Z,-0.46
2023-01-13T14:04:22.939Z,-0.46
2023-01-13T14:07:00.667Z,-0.49
2023-01-13T14:09:46.322Z,-0.56
2023-01-13T14:12:22.094Z,-0.61
2023-01-13T14:14:56.654Z,-0.62
2023-01-13T14:17:31.003Z,-0.58
2023-01-13T14:20:09.632Z,-0.56
2023-01-13T14:22:44.089Z,-0.59
2023-01-13T14:25:29.537Z,-0.60
2023-01-13T14:28:08.883Z,-0.62
2023-01-13T14:30:42.131Z,-0.64
2023-01-13T14:33:23.227Z,-0.66
2023-01-13T14:36:26.154Z,-0.64
2023-01-13T14:39:14.352Z,-0.64
2023-01-13T14:41:49.085Z,-0.69
2023-01-13T14:44:34.295Z,-0.72
2023-01-13T14:47:29.398Z,-0.70
2023-01-13T14:50:27.700Z,-0.69
2023-01-13T14:53:01.040Z,-0.70
2023-01-13T14:55:40.546Z,-0.66
2023-01-13T14:58:26.670Z,-0.65
2023-01-13T15:01:29.064Z,-0.64
2023-01-13T15:04:28.938Z,-0.67
2023-01-13T15:07:01.549Z,-0.70
2023-01-13T15:09:40.947Z,-0.67
2023-01-13T15:12:23.598Z,-0.63
2023-01-13T15:14:58.001Z,-0.67
2023-01-13T15:17:50.333Z,-0.68
2023-01-13T15:20:25.036Z,-0.68
2023-01-13T15:22:59.647Z,-0.66
2023-01-13T15:25:51.883Z,-0.62
2023-01-13T15:28:27.186Z,-0.74
2023-01-13T15:31:04.137Z,-0.73
2023-01-13T15:33:37.105Z,-0.72
2023-01-13T15:36:23.553Z,-0.75
2023-01-13T15:38:56.672Z,-0.79
2023-01-13T15:41:47.245Z,-0.83
2023-01-13T15:44:38.287Z,-0.85
2023-01-13T15:47:10.956Z,-0.82
2023-01-13T15:49:45.184Z,-0.84
2023-01-13T15:52:21.713Z,-0.81
2023-01-13T15:54:54.965Z,-0.88
2023-01-13T15:57:33.114Z,-0.92
2023-01-13T16:00:13.632Z,-0.95
2023-01-13T16:02:46.659Z,-0.94
2023-01-13T16:05:19.470Z,-0.97
2023-01-13T16:07:52.188Z,-0.97
2023-01-13T16:10:27.163Z,-0.99
2023-01-13T16:13:00.145Z,-0.97
2023-01-13T16:15:33.520Z,-1.01
2023-01-13T16:18:07.003Z,-1.01
2023-01-13T16:20:40.387Z,-1.05
2023-01-13T16:23:13.839Z,-1.05
2023-01-13T16:25:47.885Z,-1.04
2023-01-13T16:28:28.581Z,-0.99
2023-01-13T16:31:01.323Z,-0.99
2023-01-13T16:33:33.916Z,-0.98
2023-01-13T16:36:12.723Z,-1.02
2023-01-13T16:38:45.318Z,-1.07
2023-01-13T16:41:19.523Z,-1.11
2023-01-13T16:43:52.122Z,-1.11
2023-01-13T16:46:30.167Z,-1.12
2023-01-13T16:49:07.234Z,-1.13
2023-01-13T16:51:40.122Z,-1.15
2023-01-13T16:54:12.742Z,-1.15
2023-01-13T16:56:46.178Z,-1.17
2023-01-13T16:59:18.569Z,-1.17
2023-01-13T17:01:52.166Z,-1.23
2023-01-13T17:04:24.676Z,-1.23
2023-01-13T17:07:02.045Z,-1.25
2023-01-13T17:09:34.713Z,-1.23
2023-01-13T17:12:07.988Z,-1.23
2023-01-13T17:14:42.620Z,-1.19
2023-01-13T17:17:28.069Z,-1.14
2023-01-13T17:20:01.121Z,-1.12
2023-01-13T17:22:34.344Z,-1.14
2023-01-13T17:25:07.906Z,-1.14
2023-01-13T17:27:41.779Z,-1.16
2023-01-13T17:30:15.475Z,-1.17
2023-01-13T17:32:48.162Z,-1.18
2023-01-13T17:35:22.310Z,-1.19
2023-01-13T17:37:56.117Z,-1.15
2023-01-13T17:40:28.837Z,-1.12
2023-01-13T17:43:01.176Z,-1.10
2023-01-13T17:45:33.932Z,-1.08
2023-01-13T17:48:08.377Z,-1.07
2023-01-13T17:50:41.342Z,-1.04
2023-01-13T17:53:14.351Z,-1.04
2023-01-13T17:55:55.054Z,-1.05
2023-01-13T17:58:27.985Z,-1.07
2023-01-13T18:01:00.855Z,-1.02
2023-01-13T18:03:33.685Z,-1.04
2023-01-13T18:06:12.890Z,-1.02
2023-01-13T18:08:45.546Z,-1.01
2023-01-13T18:11:19.628Z,-1.03
2023-01-13T18:13:54.305Z,-1.10
2023-01-13T18:16:27.395Z,-1.13
2023-01-13T18:19:20.144Z,-1.21
2023-01-13T18:22:11.807Z,-1.28
2023-01-13T18:25:02.521Z,-1.29
2023-01-13T18:27:39.148Z,-1.26
2023-01-13T18:30:12.885Z,-1.29
2023-01-13T18:32:46.243Z,-1.30
2023-01-13T18:35:19.285Z,-1.26
2023-01-13T18:37:52.519Z,-1.25
2023-01-13T18:40:25.798Z,-1.19
2023-01-13T18:42:59.465Z,-1.18
2023-01-13T18:45:33.105Z,-1.18
2023-01-13T18:48:06.204Z,-1.18
2023-01-13T18:50:39.245Z,-1.22
2023-01-13T18:53:11.808Z,-1.24
2023-01-13T18:55:44.802Z,-1.22
2023-01-13T18:58:17.431Z,-1.21
2023-01-13T19:00:49.882Z,-1.22
2023-01-13T19:03:30.048Z,-1.23
2023-01-13T19:06:08.383Z,-1.23
2023-01-13T19:08:40.948Z,-1.24
2023-01-13T19:11:13.870Z,-1.25
2023-01-13T19:13:46.395Z,-1.21
2023-01-13T19:16:22.444Z,-1.21
2023-01-13T19:18:55.300Z,-1.17
2023-01-13T19:21:27.691Z,-1.18
2023-01-13T19:24:00.421Z,-1.25
2023-01-13T19:26:33.103Z,-1.26
2023-01-13T19:29:05.929Z,-1.23
2023-01-13T19:31:38.459Z,-1.17
2023-01-13T19:34:11.914Z,-1.16
2023-01-13T19:36:44.549Z,-1.17
2023-01-13T19:39:17.140Z,-1.16
2023-01-13T19:42:07.981Z,-1.16
2023-01-13T19:44:58.693Z,-1.16
2023-01-13T19:47:31.294Z,-1.16
2023-01-13T19:50:05.517Z,-1.13
2023-01-13T19:52:38.619Z,-1.16
2023-01-13T19:55:12.556Z,-1.18
2023-01-13T19:57:45.272Z,-1.18
2023-01-13T20:00:20.380Z,-1.17
2023-01-13T20:02:53.506Z,-1.18
2023-01-13T20:05:26.425Z,-1.16
2023-01-13T20:07:59.104Z,-1.16
2023-01-13T20:10:31.668Z,-1.11
2023-01-13T20:13:05.068Z,-1.08
2023-01-13T20:15:40.667Z,-1.06
2023-01-13T20:18:13.287Z,-1.04
2023-01-13T20:20:45.953Z,-1.03
2023-01-13T20:23:19.704Z,-1.03
2023-01-13T20:25:52.282Z,-1.03
2023-01-13T20:28:24.842Z,-1.01
2023-01-13T20:30:57.281Z,-1.01
2023-01-13T20:33:29.949Z,-1.04
2023-01-13T20:36:02.314Z,-1.06
2023-01-13T20:38:38.765Z,-1.04
2023-01-13T20:41:29.668Z,-1.02
2023-01-13T20:44:02.020Z,-0.99
2023-01-13T20:46:34.814Z,-0.95
2023-01-13T20:49:09.037Z,-0.91
2023-01-13T20:51:41.494Z,-0.94
2023-01-13T20:54:14.848Z,-0.92
2023-01-13T20:56:47.182Z,-0.92
2023-01-13T20:59:19.704Z,-0.92
2023-01-13T21:01:52.536Z,-0.92
2023-01-13T21:04:25.017Z,-0.91
2023-01-13T21:06:57.697Z,-0.87
2023-01-13T21:09:30.587Z,-0.87
2023-01-13T21:12:20.856Z,-0.89
2023-01-13T21:15:11.408Z,-0.93
2023-01-13T21:18:02.869Z,-0.94
2023-01-13T21:20:36.630Z,-0.99
2023-01-13T21:23:10.988Z,-1.01
2023-01-13T21:25:43.516Z,-0.99
2023-01-13T21:28:17.103Z,-0.96
2023-01-13T21:30:50.305Z,-0.94
2023-01-13T21:33:23.108Z,-0.95
2023-01-13T21:35:55.487Z,-0.98
2023-01-13T21:38:30.287Z,-1.02
2023-01-13T21:41:08.587Z,-1.02
2023-01-13T21:43:59.320Z,-1.03
2023-01-13T21:46:50.299Z,-1.01
2023-01-13T21:49:22.971Z,-0.99
2023-01-13T21:51:55.538Z,-0.99
2023-01-13T21:54:28.813Z,-0.97
2023-01-13T21:57:01.177Z,-0.92
2023-01-13T21:59:33.914Z,-0.92
2023-01-13T22:02:23.855Z,-0.91
2023-01-13T22:04:42.735Z,-0.92
2023-01-13T22:07:15.364Z,-0.91
2023-01-13T22:09:48.467Z,-0.87
2023-01-13T22:12:22.868Z,-0.87
2023-01-13T22:14:56.278Z,-0.81
2023-01-13T22:17:30.953Z,-0.76
2023-01-13T22:20:04.172Z,-0.71
2023-01-13T22:22:36.917Z,-0.69
2023-01-13T22:25:11.850Z,-0.64
2023-01-13T22:27:45.176Z,-0.64
2023-01-13T22:30:21.766Z,-0.62
2023-01-13T22:32:54.310Z,-0.63
2023-01-13T22:35:26.899Z,-0.60
2023-01-13T22:37:59.616Z,-0.57
2023-01-13T22:40:32.259Z,-0.59
2023-01-13T22:43:05.187Z,-0.57
2023-01-13T22:45:39.189Z,-0.62
2023-01-13T22:48:11.728Z,-0.64
2023-01-13T22:50:45.719Z,-0.65
2023-01-13T22:53:18.337Z,-0.65
2023-01-13T22:55:58.186Z,-0.69
2023-01-13T22:58:30.603Z,-0.75
2023-01-13T23:01:15.992Z,-0.75
2023-01-13T23:03:51.411Z,-0.76
2023-01-13T23:06:25.116Z,-0.84
2023-01-13T23:08:57.985Z,-0.86
2023-01-13T23:11:31.495Z,-0.89
2023-01-13T23:14:06.888Z,-0.87
2023-01-13T23:16:41.056Z,-0.84
2023-01-13T23:19:13.637Z,-0.83
2023-01-13T23:21:46.218Z,-0.76
2023-01-13T23:24:19.122Z,-0.76
2023-01-13T23:26:51.834Z,-0.77
2023-01-13T23:29:25.265Z,-0.81
2023-01-13T23:31:57.507Z,-0.84
2023-01-13T23:34:30.083Z,-0.80
2023-01-13T23:37:02.576Z,-0.76
2023-01-13T23:39:36.646Z,-0.77
2023-01-13T23:42:09.013Z,-0.77
2023-01-13T23:44:41.547Z,-0.80
2023-01-13T23:47:14.339Z,-0.77
2023-01-13T23:49:47.145Z,-0.78
2023-01-13T23:52:19.534Z,-0.79
2023-01-13T23:54:52.426Z,-0.82
2023-01-13T23:57:24.882Z,-0.78
2023-01-13T23:59:57.339Z,-0.75
